sensor_id;sensor_type;location;lat;lon;timestamp;P1;durP1;ratioP1;P2;durP2;ratioP2
4650;SDS011;2338;49.602;8.722;2023-02-10T00:00:09;60.92;;;37.20;;
4650;SDS011;2338;49.602;8.722;2023-02-10T00:02:55;54.05;;;37.25;;
4650;SDS011;2338;49.602;8.722;2023-02-10T00:05:41;48.75;;;36.08;;
4650;SDS011;2338;49.602;8.722;2023-02-10T00:08:27;52.85;;;37.03;;
4650;SDS011;2338;49.602;8.722;2023-02-10T00:11:13;54.50;;;35.65;;
4650;SDS011;2338;49.602;8.722;2023-02-10T00:13:59;56.70;;;37.97;;
4650;SDS011;2338;49.602;8.722;2023-02-10T00:16:48;48.30;;;36.58;;
4650;SDS011;2338;49.602;8.722;2023-02-10T00:19:35;52.65;;;35.92;;
4650;SDS011;2338;49.602;8.722;2023-02-10T00:22:20;45.95;;;36.00;;
4650;SDS011;2338;49.602;8.722;2023-02-10T00:25:06;51.67;;;35.13;;
4650;SDS011;2338;49.602;8.722;2023-02-10T00:27:52;54.67;;;37.20;;
4650;SDS011;2338;49.602;8.722;2023-02-10T00:30:38;48.17;;;36.38;;
4650;SDS011;2338;49.602;8.722;2023-02-10T00:33:25;52.72;;;38.38;;
4650;SDS011;2338;49.602;8.722;2023-02-10T00:36:11;52.20;;;36.38;;
4650;SDS011;2338;49.602;8.722;2023-02-10T00:38:58;51.67;;;37.10;;
4650;SDS011;2338;49.602;8.722;2023-02-10T00:41:45;52.35;;;37.67;;
4650;SDS011;2338;49.602;8.722;2023-02-10T00:44:31;49.20;;;36.13;;
4650;SDS011;2338;49.602;8.722;2023-02-10T00:47:17;52.78;;;35.25;;
4650;SDS011;2338;49.602;8.722;2023-02-10T00:50:04;51.65;;;35.97;;
4650;SDS011;2338;49.602;8.722;2023-02-10T00:52:50;52.25;;;37.85;;
4650;SDS011;2338;49.602;8.722;2023-02-10T00:55:35;52.63;;;36.60;;
4650;SDS011;2338;49.602;8.722;2023-02-10T00:58:21;51.08;;;36.60;;
4650;SDS011;2338;49.602;8.722;2023-02-10T01:01:07;64.78;;;36.08;;
4650;SDS011;2338;49.602;8.722;2023-02-10T01:03:53;50.13;;;36.75;;
4650;SDS011;2338;49.602;8.722;2023-02-10T01:06:40;49.50;;;36.53;;
4650;SDS011;2338;49.602;8.722;2023-02-10T01:09:26;53.20;;;35.67;;
4650;SDS011;2338;49.602;8.722;2023-02-10T01:12:12;52.47;;;35.55;;
4650;SDS011;2338;49.602;8.722;2023-02-10T01:14:57;48.88;;;35.47;;
4650;SDS011;2338;49.602;8.722;2023-02-10T01:17:43;50.47;;;36.78;;
4650;SDS011;2338;49.602;8.722;2023-02-10T01:20:29;49.70;;;35.35;;
4650;SDS011;2338;49.602;8.722;2023-02-10T01:23:16;54.45;;;35.80;;
4650;SDS011;2338;49.602;8.722;2023-02-10T01:26:02;48.78;;;34.85;;
4650;SDS011;2338;49.602;8.722;2023-02-10T01:28:48;51.50;;;36.50;;
4650;SDS011;2338;49.602;8.722;2023-02-10T01:31:33;51.60;;;35.42;;
4650;SDS011;2338;49.602;8.722;2023-02-10T01:34:19;62.92;;;39.92;;
4650;SDS011;2338;49.602;8.722;2023-02-10T01:37:04;53.50;;;37.85;;
4650;SDS011;2338;49.602;8.722;2023-02-10T01:39:51;57.83;;;37.58;;
4650;SDS011;2338;49.602;8.722;2023-02-10T01:42:37;57.17;;;41.25;;
4650;SDS011;2338;49.602;8.722;2023-02-10T01:45:26;60.78;;;43.40;;
4650;SDS011;2338;49.602;8.722;2023-02-10T01:48:15;62.08;;;37.20;;
4650;SDS011;2338;49.602;8.722;2023-02-10T01:51:02;58.42;;;41.25;;
4650;SDS011;2338;49.602;8.722;2023-02-10T01:53:51;55.70;;;40.55;;
4650;SDS011;2338;49.602;8.722;2023-02-10T01:56:38;59.00;;;38.75;;
4650;SDS011;2338;49.602;8.722;2023-02-10T01:59:24;57.88;;;40.40;;
4650;SDS011;2338;49.602;8.722;2023-02-10T02:02:15;64.55;;;41.60;;
4650;SDS011;2338;49.602;8.722;2023-02-10T02:05:03;58.90;;;38.85;;
4650;SDS011;2338;49.602;8.722;2023-02-10T02:07:50;65.22;;;45.45;;
4650;SDS011;2338;49.602;8.722;2023-02-10T02:10:45;59.22;;;41.80;;
4650;SDS011;2338;49.602;8.722;2023-02-10T02:13:43;58.38;;;37.60;;
4650;SDS011;2338;49.602;8.722;2023-02-10T02:16:52;54.85;;;38.15;;
4650;SDS011;2338;49.602;8.722;2023-02-10T02:19:59;57.00;;;39.65;;
4650;SDS011;2338;49.602;8.722;2023-02-10T02:23:36;53.05;;;37.78;;
4650;SDS011;2338;49.602;8.722;2023-02-10T02:26:48;52.75;;;36.78;;
4650;SDS011;2338;49.602;8.722;2023-02-10T02:29:59;54.33;;;38.83;;
4650;SDS011;2338;49.602;8.722;2023-02-10T02:33:10;57.85;;;38.90;;
4650;SDS011;2338;49.602;8.722;2023-02-10T02:35:59;57.08;;;37.53;;
4650;SDS011;2338;49.602;8.722;2023-02-10T02:38:48;55.75;;;39.25;;
4650;SDS011;2338;49.602;8.722;2023-02-10T02:41:34;45.67;;;34.17;;
4650;SDS011;2338;49.602;8.722;2023-02-10T02:44:20;57.25;;;36.05;;
4650;SDS011;2338;49.602;8.722;2023-02-10T02:47:07;50.45;;;37.13;;
4650;SDS011;2338;49.602;8.722;2023-02-10T02:50:01;57.60;;;38.03;;
4650;SDS011;2338;49.602;8.722;2023-02-10T02:53:00;55.97;;;36.97;;
4650;SDS011;2338;49.602;8.722;2023-02-10T02:55:59;53.90;;;38.83;;
4650;SDS011;2338;49.602;8.722;2023-02-10T02:58:52;53.35;;;36.40;;
4650;SDS011;2338;49.602;8.722;2023-02-10T03:01:41;52.83;;;34.55;;
4650;SDS011;2338;49.602;8.722;2023-02-10T03:04:31;52.50;;;33.72;;
4650;SDS011;2338;49.602;8.722;2023-02-10T03:07:20;58.22;;;34.65;;
4650;SDS011;2338;49.602;8.722;2023-02-10T03:10:06;66.03;;;36.97;;
4650;SDS011;2338;49.602;8.722;2023-02-10T03:12:52;56.85;;;41.03;;
4650;SDS011;2338;49.602;8.722;2023-02-10T03:15:38;53.30;;;37.55;;
4650;SDS011;2338;49.602;8.722;2023-02-10T03:18:24;60.30;;;41.47;;
4650;SDS011;2338;49.602;8.722;2023-02-10T03:21:09;61.85;;;42.35;;
4650;SDS011;2338;49.602;8.722;2023-02-10T03:23:56;64.95;;;41.92;;
4650;SDS011;2338;49.602;8.722;2023-02-10T03:26:44;60.67;;;38.33;;
4650;SDS011;2338;49.602;8.722;2023-02-10T03:29:29;63.38;;;40.00;;
4650;SDS011;2338;49.602;8.722;2023-02-10T03:32:15;55.13;;;37.58;;
4650;SDS011;2338;49.602;8.722;2023-02-10T03:35:01;58.42;;;37.67;;
4650;SDS011;2338;49.602;8.722;2023-02-10T03:37:47;64.55;;;43.88;;
4650;SDS011;2338;49.602;8.722;2023-02-10T03:40:34;64.20;;;42.42;;
4650;SDS011;2338;49.602;8.722;2023-02-10T03:43:20;61.15;;;41.40;;
4650;SDS011;2338;49.602;8.722;2023-02-10T03:46:06;59.65;;;39.28;;
4650;SDS011;2338;49.602;8.722;2023-02-10T03:48:54;67.20;;;42.15;;
4650;SDS011;2338;49.602;8.722;2023-02-10T03:51:40;59.97;;;38.85;;
4650;SDS011;2338;49.602;8.722;2023-02-10T03:54:25;54.15;;;37.10;;
4650;SDS011;2338;49.602;8.722;2023-02-10T03:57:12;55.08;;;41.42;;
4650;SDS011;2338;49.602;8.722;2023-02-10T03:59:58;55.58;;;38.58;;
4650;SDS011;2338;49.602;8.722;2023-02-10T04:02:44;56.40;;;40.55;;
4650;SDS011;2338;49.602;8.722;2023-02-10T04:05:30;57.33;;;37.47;;
4650;SDS011;2338;49.602;8.722;2023-02-10T04:08:15;53.42;;;39.28;;
4650;SDS011;2338;49.602;8.722;2023-02-10T04:11:01;53.90;;;37.38;;
4650;SDS011;2338;49.602;8.722;2023-02-10T04:13:49;54.58;;;39.22;;
4650;SDS011;2338;49.602;8.722;2023-02-10T04:16:34;55.05;;;36.72;;
4650;SDS011;2338;49.602;8.722;2023-02-10T04:19:20;56.00;;;38.72;;
4650;SDS011;2338;49.602;8.722;2023-02-10T04:22:06;59.25;;;36.78;;
4650;SDS011;2338;49.602;8.722;2023-02-10T04:24:51;59.75;;;36.95;;
4650;SDS011;2338;49.602;8.722;2023-02-10T04:27:37;50.55;;;35.85;;
4650;SDS011;2338;49.602;8.722;2023-02-10T04:30:24;50.17;;;32.75;;
4650;SDS011;2338;49.602;8.722;2023-02-10T04:33:09;56.60;;;37.55;;
4650;SDS011;2338;49.602;8.722;2023-02-10T04:35:55;52.13;;;36.83;;
4650;SDS011;2338;49.602;8.722;2023-02-10T04:38:41;54.72;;;36.40;;
4650;SDS011;2338;49.602;8.722;2023-02-10T04:41:26;57.75;;;38.72;;
4650;SDS011;2338;49.602;8.722;2023-02-10T04:44:12;57.83;;;40.47;;
4650;SDS011;2338;49.602;8.722;2023-02-10T04:46:59;53.95;;;35.55;;
4650;SDS011;2338;49.602;8.722;2023-02-10T04:49:44;53.90;;;35.50;;
4650;SDS011;2338;49.602;8.722;2023-02-10T04:52:30;53.13;;;35.10;;
4650;SDS011;2338;49.602;8.722;2023-02-10T04:55:16;49.50;;;37.60;;
4650;SDS011;2338;49.602;8.722;2023-02-10T04:58:01;52.20;;;36.50;;
4650;SDS011;2338;49.602;8.722;2023-02-10T05:00:47;52.10;;;36.30;;
4650;SDS011;2338;49.602;8.722;2023-02-10T05:03:34;55.95;;;37.40;;
4650;SDS011;2338;49.602;8.722;2023-02-10T05:06:19;50.42;;;35.80;;
4650;SDS011;2338;49.602;8.722;2023-02-10T05:09:05;51.92;;;34.65;;
4650;SDS011;2338;49.602;8.722;2023-02-10T05:11:51;51.53;;;37.70;;
4650;SDS011;2338;49.602;8.722;2023-02-10T05:14:36;54.40;;;36.88;;
4650;SDS011;2338;49.602;8.722;2023-02-10T05:17:22;57.25;;;38.42;;
4650;SDS011;2338;49.602;8.722;2023-02-10T05:20:10;57.28;;;39.38;;
4650;SDS011;2338;49.602;8.722;2023-02-10T05:22:55;55.28;;;36.67;;
4650;SDS011;2338;49.602;8.722;2023-02-10T05:25:41;53.42;;;37.05;;
4650;SDS011;2338;49.602;8.722;2023-02-10T05:28:27;52.70;;;38.72;;
4650;SDS011;2338;49.602;8.722;2023-02-10T05:31:12;56.67;;;37.75;;
4650;SDS011;2338;49.602;8.722;2023-02-10T05:33:58;54.45;;;36.42;;
4650;SDS011;2338;49.602;8.722;2023-02-10T05:36:45;48.38;;;33.92;;
4650;SDS011;2338;49.602;8.722;2023-02-10T05:39:30;57.90;;;36.88;;
4650;SDS011;2338;49.602;8.722;2023-02-10T05:42:16;54.10;;;38.00;;
4650;SDS011;2338;49.602;8.722;2023-02-10T05:45:02;59.42;;;40.95;;
4650;SDS011;2338;49.602;8.722;2023-02-10T05:47:48;54.17;;;34.55;;
4650;SDS011;2338;49.602;8.722;2023-02-10T05:50:34;61.72;;;39.20;;
4650;SDS011;2338;49.602;8.722;2023-02-10T05:53:21;65.68;;;46.60;;
4650;SDS011;2338;49.602;8.722;2023-02-10T05:56:07;56.03;;;39.38;;
4650;SDS011;2338;49.602;8.722;2023-02-10T05:58:52;55.10;;;38.90;;
4650;SDS011;2338;49.602;8.722;2023-02-10T06:01:38;53.78;;;39.38;;
4650;SDS011;2338;49.602;8.722;2023-02-10T06:04:24;61.20;;;38.92;;
4650;SDS011;2338;49.602;8.722;2023-02-10T06:07:10;55.03;;;39.35;;
4650;SDS011;2338;49.602;8.722;2023-02-10T06:09:57;54.15;;;37.50;;
4650;SDS011;2338;49.602;8.722;2023-02-10T06:12:42;58.70;;;40.67;;
4650;SDS011;2338;49.602;8.722;2023-02-10T06:15:28;53.78;;;37.08;;
4650;SDS011;2338;49.602;8.722;2023-02-10T06:18:14;55.08;;;38.00;;
4650;SDS011;2338;49.602;8.722;2023-02-10T06:20:59;50.85;;;38.58;;
4650;SDS011;2338;49.602;8.722;2023-02-10T06:23:45;53.70;;;38.25;;
4650;SDS011;2338;49.602;8.722;2023-02-10T06:26:32;52.80;;;38.42;;
4650;SDS011;2338;49.602;8.722;2023-02-10T06:29:17;55.90;;;39.30;;
4650;SDS011;2338;49.602;8.722;2023-02-10T06:32:03;59.05;;;40.10;;
4650;SDS011;2338;49.602;8.722;2023-02-10T06:34:49;55.63;;;39.33;;
4650;SDS011;2338;49.602;8.722;2023-02-10T06:37:35;58.78;;;41.58;;
4650;SDS011;2338;49.602;8.722;2023-02-10T06:40:20;56.55;;;39.72;;
4650;SDS011;2338;49.602;8.722;2023-02-10T06:43:07;57.78;;;39.33;;
4650;SDS011;2338;49.602;8.722;2023-02-10T06:45:53;60.65;;;42.58;;
4650;SDS011;2338;49.602;8.722;2023-02-10T06:48:38;70.05;;;45.28;;
4650;SDS011;2338;49.602;8.722;2023-02-10T06:51:24;85.72;;;54.97;;
4650;SDS011;2338;49.602;8.722;2023-02-10T06:54:09;88.50;;;53.95;;
4650;SDS011;2338;49.602;8.722;2023-02-10T06:56:55;88.53;;;54.05;;
4650;SDS011;2338;49.602;8.722;2023-02-10T06:59:42;83.70;;;54.85;;
4650;SDS011;2338;49.602;8.722;2023-02-10T07:02:28;82.78;;;52.53;;
4650;SDS011;2338;49.602;8.722;2023-02-10T07:05:13;75.82;;;47.05;;
4650;SDS011;2338;49.602;8.722;2023-02-10T07:07:59;74.20;;;45.30;;
4650;SDS011;2338;49.602;8.722;2023-02-10T07:10:46;86.03;;;53.25;;
4650;SDS011;2338;49.602;8.722;2023-02-10T07:13:32;71.00;;;52.63;;
4650;SDS011;2338;49.602;8.722;2023-02-10T07:16:19;71.80;;;48.88;;
4650;SDS011;2338;49.602;8.722;2023-02-10T07:19:04;66.15;;;44.50;;
4650;SDS011;2338;49.602;8.722;2023-02-10T07:21:50;60.95;;;39.97;;
4650;SDS011;2338;49.602;8.722;2023-02-10T07:24:36;61.90;;;44.05;;
4650;SDS011;2338;49.602;8.722;2023-02-10T07:27:21;57.30;;;38.53;;
4650;SDS011;2338;49.602;8.722;2023-02-10T07:30:08;59.63;;;41.42;;
4650;SDS011;2338;49.602;8.722;2023-02-10T07:32:56;54.50;;;36.88;;
4650;SDS011;2338;49.602;8.722;2023-02-10T07:35:43;62.75;;;37.55;;
4650;SDS011;2338;49.602;8.722;2023-02-10T07:38:28;63.67;;;42.70;;
4650;SDS011;2338;49.602;8.722;2023-02-10T07:41:14;64.38;;;41.28;;
4650;SDS011;2338;49.602;8.722;2023-02-10T07:43:59;64.47;;;37.60;;
4650;SDS011;2338;49.602;8.722;2023-02-10T07:46:45;59.35;;;41.63;;
4650;SDS011;2338;49.602;8.722;2023-02-10T07:49:32;60.90;;;39.67;;
4650;SDS011;2338;49.602;8.722;2023-02-10T07:52:18;61.63;;;43.80;;
4650;SDS011;2338;49.602;8.722;2023-02-10T07:55:04;65.75;;;46.03;;
4650;SDS011;2338;49.602;8.722;2023-02-10T07:57:51;67.55;;;47.08;;
4650;SDS011;2338;49.602;8.722;2023-02-10T08:00:37;63.75;;;41.05;;
4650;SDS011;2338;49.602;8.722;2023-02-10T08:03:22;63.72;;;43.20;;
4650;SDS011;2338;49.602;8.722;2023-02-10T08:06:09;71.13;;;43.15;;
4650;SDS011;2338;49.602;8.722;2023-02-10T08:08:55;58.63;;;38.10;;
4650;SDS011;2338;49.602;8.722;2023-02-10T08:11:41;64.78;;;39.65;;
4650;SDS011;2338;49.602;8.722;2023-02-10T08:14:27;63.97;;;39.95;;
4650;SDS011;2338;49.602;8.722;2023-02-10T08:17:12;61.80;;;39.20;;
4650;SDS011;2338;49.602;8.722;2023-02-10T08:19:58;57.65;;;38.97;;
4650;SDS011;2338;49.602;8.722;2023-02-10T08:22:45;59.55;;;37.10;;
4650;SDS011;2338;49.602;8.722;2023-02-10T08:25:30;56.58;;;35.15;;
4650;SDS011;2338;49.602;8.722;2023-02-10T08:28:16;65.03;;;38.05;;
4650;SDS011;2338;49.602;8.722;2023-02-10T08:31:02;72.65;;;39.92;;
4650;SDS011;2338;49.602;8.722;2023-02-10T08:33:49;62.83;;;38.28;;
4650;SDS011;2338;49.602;8.722;2023-02-10T08:36:35;62.42;;;36.70;;
4650;SDS011;2338;49.602;8.722;2023-02-10T08:39:22;55.10;;;36.58;;
4650;SDS011;2338;49.602;8.722;2023-02-10T08:42:08;61.05;;;36.15;;
4650;SDS011;2338;49.602;8.722;2023-02-10T08:44:54;62.80;;;37.60;;
4650;SDS011;2338;49.602;8.722;2023-02-10T08:47:40;60.58;;;37.05;;
4650;SDS011;2338;49.602;8.722;2023-02-10T08:50:26;66.13;;;38.30;;
4650;SDS011;2338;49.602;8.722;2023-02-10T08:53:12;61.95;;;39.55;;
4650;SDS011;2338;49.602;8.722;2023-02-10T08:56:00;58.13;;;35.72;;
4650;SDS011;2338;49.602;8.722;2023-02-10T08:58:46;63.35;;;37.05;;
4650;SDS011;2338;49.602;8.722;2023-02-10T09:01:34;56.42;;;35.25;;
4650;SDS011;2338;49.602;8.722;2023-02-10T09:04:19;55.88;;;33.50;;
4650;SDS011;2338;49.602;8.722;2023-02-10T09:07:05;60.10;;;36.33;;
4650;SDS011;2338;49.602;8.722;2023-02-10T09:09:51;52.97;;;33.88;;
4650;SDS011;2338;49.602;8.722;2023-02-10T09:12:39;50.05;;;33.80;;
4650;SDS011;2338;49.602;8.722;2023-02-10T09:15:25;56.78;;;34.30;;
4650;SDS011;2338;49.602;8.722;2023-02-10T09:18:10;54.65;;;33.80;;
4650;SDS011;2338;49.602;8.722;2023-02-10T09:20:56;58.55;;;35.42;;
4650;SDS011;2338;49.602;8.722;2023-02-10T09:23:42;58.85;;;36.85;;
4650;SDS011;2338;49.602;8.722;2023-02-10T09:26:28;65.05;;;38.45;;
4650;SDS011;2338;49.602;8.722;2023-02-10T09:29:15;68.28;;;39.65;;
4650;SDS011;2338;49.602;8.722;2023-02-10T09:32:01;59.15;;;35.80;;
4650;SDS011;2338;49.602;8.722;2023-02-10T09:34:46;57.70;;;37.15;;
4650;SDS011;2338;49.602;8.722;2023-02-10T09:37:32;63.72;;;35.80;;
4650;SDS011;2338;49.602;8.722;2023-02-10T09:40:19;54.50;;;34.67;;
4650;SDS011;2338;49.602;8.722;2023-02-10T09:43:11;50.28;;;33.65;;
4650;SDS011;2338;49.602;8.722;2023-02-10T09:46:12;61.75;;;34.38;;
4650;SDS011;2338;49.602;8.722;2023-02-10T09:49:11;57.40;;;34.50;;
4650;SDS011;2338;49.602;8.722;2023-02-10T09:52:12;61.70;;;34.47;;
4650;SDS011;2338;49.602;8.722;2023-02-10T09:55:06;59.03;;;37.10;;
4650;SDS011;2338;49.602;8.722;2023-02-10T09:57:58;57.95;;;35.85;;
4650;SDS011;2338;49.602;8.722;2023-02-10T10:00:47;54.53;;;32.92;;
4650;SDS011;2338;49.602;8.722;2023-02-10T10:03:42;59.00;;;34.38;;
4650;SDS011;2338;49.602;8.722;2023-02-10T10:06:33;50.25;;;32.00;;
4650;SDS011;2338;49.602;8.722;2023-02-10T10:09:23;52.80;;;35.35;;
4650;SDS011;2338;49.602;8.722;2023-02-10T10:12:15;64.90;;;35.75;;
4650;SDS011;2338;49.602;8.722;2023-02-10T10:15:03;59.30;;;34.50;;
4650;SDS011;2338;49.602;8.722;2023-02-10T10:18:01;64.13;;;35.40;;
4650;SDS011;2338;49.602;8.722;2023-02-10T10:20:57;60.72;;;36.45;;
4650;SDS011;2338;49.602;8.722;2023-02-10T10:23:54;60.10;;;34.08;;
4650;SDS011;2338;49.602;8.722;2023-02-10T10:26:54;54.90;;;33.50;;
4650;SDS011;2338;49.602;8.722;2023-02-10T10:29:48;58.40;;;32.67;;
4650;SDS011;2338;49.602;8.722;2023-02-10T10:32:40;59.70;;;34.40;;
4650;SDS011;2338;49.602;8.722;2023-02-10T10:35:28;51.85;;;32.10;;
4650;SDS011;2338;49.602;8.722;2023-02-10T10:38:23;62.58;;;34.20;;
4650;SDS011;2338;49.602;8.722;2023-02-10T10:41:10;59.83;;;32.85;;
4650;SDS011;2338;49.602;8.722;2023-02-10T10:43:58;53.92;;;31.00;;
4650;SDS011;2338;49.602;8.722;2023-02-10T10:46:45;57.78;;;33.00;;
4650;SDS011;2338;49.602;8.722;2023-02-10T10:49:32;57.00;;;33.72;;
4650;SDS011;2338;49.602;8.722;2023-02-10T10:52:23;49.35;;;29.50;;
4650;SDS011;2338;49.602;8.722;2023-02-10T10:55:14;54.95;;;30.83;;
4650;SDS011;2338;49.602;8.722;2023-02-10T10:58:07;54.38;;;33.15;;
4650;SDS011;2338;49.602;8.722;2023-02-10T11:01:03;51.90;;;33.75;;
4650;SDS011;2338;49.602;8.722;2023-02-10T11:03:49;55.35;;;32.00;;
4650;SDS011;2338;49.602;8.722;2023-02-10T11:06:35;52.58;;;30.80;;
4650;SDS011;2338;49.602;8.722;2023-02-10T11:09:22;54.65;;;32.78;;
4650;SDS011;2338;49.602;8.722;2023-02-10T11:12:15;52.15;;;29.80;;
4650;SDS011;2338;49.602;8.722;2023-02-10T11:18:20;49.25;;;27.50;;
4650;SDS011;2338;49.602;8.722;2023-02-10T11:21:08;45.65;;;28.40;;
4650;SDS011;2338;49.602;8.722;2023-02-10T11:23:55;40.55;;;27.08;;
4650;SDS011;2338;49.602;8.722;2023-02-10T11:26:41;48.75;;;30.38;;
4650;SDS011;2338;49.602;8.722;2023-02-10T11:29:29;58.63;;;33.55;;
4650;SDS011;2338;49.602;8.722;2023-02-10T11:32:18;51.70;;;30.17;;
4650;SDS011;2338;49.602;8.722;2023-02-10T11:35:06;49.45;;;28.80;;
4650;SDS011;2338;49.602;8.722;2023-02-10T11:38:00;45.30;;;28.50;;
4650;SDS011;2338;49.602;8.722;2023-02-10T11:40:50;45.88;;;28.45;;
4650;SDS011;2338;49.602;8.722;2023-02-10T11:43:39;49.10;;;28.50;;
4650;SDS011;2338;49.602;8.722;2023-02-10T11:46:28;45.78;;;28.30;;
4650;SDS011;2338;49.602;8.722;2023-02-10T11:49:16;41.28;;;28.05;;
4650;SDS011;2338;49.602;8.722;2023-02-10T11:52:03;49.25;;;28.25;;
4650;SDS011;2338;49.602;8.722;2023-02-10T11:54:49;45.33;;;25.73;;
4650;SDS011;2338;49.602;8.722;2023-02-10T11:57:38;44.53;;;26.73;;
4650;SDS011;2338;49.602;8.722;2023-02-10T12:00:52;47.35;;;27.67;;
4650;SDS011;2338;49.602;8.722;2023-02-10T12:03:52;40.85;;;26.25;;
4650;SDS011;2338;49.602;8.722;2023-02-10T12:06:48;44.33;;;24.77;;
4650;SDS011;2338;49.602;8.722;2023-02-10T12:09:40;39.03;;;24.65;;
4650;SDS011;2338;49.602;8.722;2023-02-10T12:12:36;38.65;;;24.50;;
4650;SDS011;2338;49.602;8.722;2023-02-10T12:15:28;36.17;;;22.05;;
4650;SDS011;2338;49.602;8.722;2023-02-10T12:18:24;36.43;;;23.83;;
4650;SDS011;2338;49.602;8.722;2023-02-10T12:21:43;40.35;;;22.90;;
4650;SDS011;2338;49.602;8.722;2023-02-10T12:24:47;43.17;;;24.97;;
4650;SDS011;2338;49.602;8.722;2023-02-10T12:27:57;33.97;;;22.90;;
4650;SDS011;2338;49.602;8.722;2023-02-10T12:30:49;40.53;;;24.45;;
4650;SDS011;2338;49.602;8.722;2023-02-10T12:33:45;42.30;;;24.10;;
4650;SDS011;2338;49.602;8.722;2023-02-10T12:36:45;47.33;;;27.20;;
4650;SDS011;2338;49.602;8.722;2023-02-10T12:39:39;43.60;;;26.37;;
4650;SDS011;2338;49.602;8.722;2023-02-10T12:42:34;43.20;;;26.00;;
4650;SDS011;2338;49.602;8.722;2023-02-10T12:45:32;44.40;;;27.60;;
4650;SDS011;2338;49.602;8.722;2023-02-10T12:48:24;43.70;;;25.47;;
4650;SDS011;2338;49.602;8.722;2023-02-10T12:51:27;45.37;;;25.63;;
4650;SDS011;2338;49.602;8.722;2023-02-10T12:54:29;47.03;;;28.03;;
4650;SDS011;2338;49.602;8.722;2023-02-10T12:57:20;45.23;;;28.13;;
4650;SDS011;2338;49.602;8.722;2023-02-10T13:00:11;49.05;;;26.77;;
4650;SDS011;2338;49.602;8.722;2023-02-10T13:03:02;45.47;;;28.73;;
4650;SDS011;2338;49.602;8.722;2023-02-10T13:05:54;50.90;;;27.40;;
4650;SDS011;2338;49.602;8.722;2023-02-10T13:08:47;43.50;;;26.73;;
4650;SDS011;2338;49.602;8.722;2023-02-10T13:11:38;45.40;;;29.10;;
4650;SDS011;2338;49.602;8.722;2023-02-10T13:14:27;41.00;;;28.63;;
4650;SDS011;2338;49.602;8.722;2023-02-10T13:17:14;51.23;;;29.33;;
4650;SDS011;2338;49.602;8.722;2023-02-10T13:20:01;41.43;;;27.10;;
4650;SDS011;2338;49.602;8.722;2023-02-10T13:22:53;52.20;;;26.90;;
4650;SDS011;2338;49.602;8.722;2023-02-10T13:25:52;43.83;;;26.90;;
4650;SDS011;2338;49.602;8.722;2023-02-10T13:28:51;53.97;;;24.70;;
4650;SDS011;2338;49.602;8.722;2023-02-10T13:31:54;41.80;;;26.57;;
4650;SDS011;2338;49.602;8.722;2023-02-10T13:34:47;41.37;;;26.90;;
4650;SDS011;2338;49.602;8.722;2023-02-10T13:37:37;43.80;;;26.20;;
4650;SDS011;2338;49.602;8.722;2023-02-10T13:40:26;38.30;;;25.03;;
4650;SDS011;2338;49.602;8.722;2023-02-10T13:43:17;45.30;;;26.77;;
4650;SDS011;2338;49.602;8.722;2023-02-10T13:46:17;41.27;;;25.73;;
4650;SDS011;2338;49.602;8.722;2023-02-10T13:49:11;38.97;;;25.20;;
4650;SDS011;2338;49.602;8.722;2023-02-10T13:52:05;41.43;;;26.50;;
4650;SDS011;2338;49.602;8.722;2023-02-10T13:54:57;42.60;;;26.97;;
4650;SDS011;2338;49.602;8.722;2023-02-10T13:57:50;42.77;;;26.40;;
4650;SDS011;2338;49.602;8.722;2023-02-10T14:00:41;50.60;;;29.80;;
4650;SDS011;2338;49.602;8.722;2023-02-10T14:03:32;46.87;;;28.33;;
4650;SDS011;2338;49.602;8.722;2023-02-10T14:06:18;43.47;;;29.10;;
4650;SDS011;2338;49.602;8.722;2023-02-10T14:09:04;42.17;;;28.80;;
4650;SDS011;2338;49.602;8.722;2023-02-10T14:12:02;43.30;;;27.47;;
4650;SDS011;2338;49.602;8.722;2023-02-10T14:14:49;41.00;;;28.17;;
4650;SDS011;2338;49.602;8.722;2023-02-10T14:17:35;44.50;;;27.30;;
4650;SDS011;2338;49.602;8.722;2023-02-10T14:20:28;44.27;;;27.23;;
4650;SDS011;2338;49.602;8.722;2023-02-10T14:23:18;45.70;;;27.40;;
4650;SDS011;2338;49.602;8.722;2023-02-10T14:26:06;49.73;;;30.47;;
4650;SDS011;2338;49.602;8.722;2023-02-10T14:28:58;45.73;;;28.73;;
4650;SDS011;2338;49.602;8.722;2023-02-10T14:31:46;43.40;;;28.95;;
4650;SDS011;2338;49.602;8.722;2023-02-10T14:34:34;43.30;;;28.55;;
4650;SDS011;2338;49.602;8.722;2023-02-10T14:37:23;43.80;;;27.70;;
4650;SDS011;2338;49.602;8.722;2023-02-10T14:40:15;41.90;;;27.33;;
4650;SDS011;2338;49.602;8.722;2023-02-10T14:43:02;38.17;;;26.27;;
4650;SDS011;2338;49.602;8.722;2023-02-10T14:45:48;39.93;;;26.63;;
4650;SDS011;2338;49.602;8.722;2023-02-10T14:48:34;45.43;;;28.63;;
4650;SDS011;2338;49.602;8.722;2023-02-10T14:51:21;43.70;;;27.17;;
4650;SDS011;2338;49.602;8.722;2023-02-10T14:54:13;55.37;;;30.37;;
4650;SDS011;2338;49.602;8.722;2023-02-10T14:57:02;56.30;;;29.77;;
4650;SDS011;2338;49.602;8.722;2023-02-10T14:59:56;37.50;;;25.77;;
4650;SDS011;2338;49.602;8.722;2023-02-10T15:02:45;43.08;;;25.08;;
4650;SDS011;2338;49.602;8.722;2023-02-10T15:05:33;46.33;;;26.25;;
4650;SDS011;2338;49.602;8.722;2023-02-10T15:08:22;54.00;;;29.65;;
4650;SDS011;2338;49.602;8.722;2023-02-10T15:11:16;37.13;;;22.57;;
4650;SDS011;2338;49.602;8.722;2023-02-10T15:14:25;47.50;;;25.23;;
4650;SDS011;2338;49.602;8.722;2023-02-10T15:17:15;37.27;;;24.83;;
4650;SDS011;2338;49.602;8.722;2023-02-10T15:20:17;38.00;;;24.70;;
4650;SDS011;2338;49.602;8.722;2023-02-10T15:23:11;38.00;;;24.53;;
4650;SDS011;2338;49.602;8.722;2023-02-10T15:26:00;54.40;;;30.83;;
4650;SDS011;2338;49.602;8.722;2023-02-10T15:28:58;41.40;;;25.27;;
4650;SDS011;2338;49.602;8.722;2023-02-10T15:31:53;43.05;;;25.80;;
4650;SDS011;2338;49.602;8.722;2023-02-10T15:34:40;46.53;;;24.43;;
4650;SDS011;2338;49.602;8.722;2023-02-10T15:37:25;37.83;;;24.88;;
4650;SDS011;2338;49.602;8.722;2023-02-10T15:40:17;41.23;;;25.07;;
4650;SDS011;2338;49.602;8.722;2023-02-10T15:43:05;38.08;;;23.95;;
4650;SDS011;2338;49.602;8.722;2023-02-10T15:46:13;37.65;;;22.98;;
4650;SDS011;2338;49.602;8.722;2023-02-10T15:49:05;41.20;;;24.40;;
4650;SDS011;2338;49.602;8.722;2023-02-10T15:51:52;34.57;;;23.17;;
4650;SDS011;2338;49.602;8.722;2023-02-10T15:54:39;36.50;;;24.27;;
4650;SDS011;2338;49.602;8.722;2023-02-10T15:57:25;37.50;;;24.20;;
4650;SDS011;2338;49.602;8.722;2023-02-10T16:00:15;38.33;;;24.37;;
4650;SDS011;2338;49.602;8.722;2023-02-10T16:03:07;37.23;;;23.40;;
4650;SDS011;2338;49.602;8.722;2023-02-10T16:05:53;40.90;;;27.05;;
4650;SDS011;2338;49.602;8.722;2023-02-10T16:08:45;35.60;;;23.00;;
4650;SDS011;2338;49.602;8.722;2023-02-10T16:11:31;39.47;;;23.70;;
4650;SDS011;2338;49.602;8.722;2023-02-10T16:14:16;39.05;;;25.70;;
4650;SDS011;2338;49.602;8.722;2023-02-10T16:17:02;41.45;;;23.67;;
4650;SDS011;2338;49.602;8.722;2023-02-10T16:19:52;36.55;;;25.13;;
4650;SDS011;2338;49.602;8.722;2023-02-10T16:22:38;34.03;;;23.83;;
4650;SDS011;2338;49.602;8.722;2023-02-10T16:25:24;34.57;;;22.70;;
4650;SDS011;2338;49.602;8.722;2023-02-10T16:28:12;38.35;;;23.45;;
4650;SDS011;2338;49.602;8.722;2023-02-10T16:30:59;37.22;;;25.05;;
4650;SDS011;2338;49.602;8.722;2023-02-10T16:33:45;67.72;;;28.63;;
4650;SDS011;2338;49.602;8.722;2023-02-10T16:36:32;36.15;;;23.23;;
4650;SDS011;2338;49.602;8.722;2023-02-10T16:39:18;36.17;;;23.23;;
4650;SDS011;2338;49.602;8.722;2023-02-10T16:42:07;35.75;;;23.23;;
4650;SDS011;2338;49.602;8.722;2023-02-10T16:44:52;39.47;;;24.92;;
4650;SDS011;2338;49.602;8.722;2023-02-10T16:47:38;41.97;;;25.98;;
4650;SDS011;2338;49.602;8.722;2023-02-10T16:50:25;35.80;;;23.80;;
4650;SDS011;2338;49.602;8.722;2023-02-10T16:53:16;37.53;;;23.08;;
4650;SDS011;2338;49.602;8.722;2023-02-10T16:56:02;35.85;;;23.60;;
4650;SDS011;2338;49.602;8.722;2023-02-10T16:58:49;36.33;;;24.30;;
4650;SDS011;2338;49.602;8.722;2023-02-10T17:01:35;42.17;;;28.17;;